createdAt,value
2018-10-18T00:00:13.055Z,51.23
2018-10-18T00:02:45.378Z,49.00
2018-10-18T00:05:17.786Z,50.23
2018-10-18T00:07:50.240Z,53.27
2018-10-18T00:10:22.635Z,51.27
2018-10-18T00:12:55.054Z,48.90
2018-10-18T00:15:27.512Z,55.40
2018-10-18T00:17:59.954Z,50.87
2018-10-18T00:20:32.400Z,59.40
2018-10-18T00:23:05.009Z,54.80
2018-10-18T00:25:37.425Z,59.70
2018-10-18T00:28:09.842Z,51.93
2018-10-18T00:30:42.295Z,53.53
2018-10-18T00:33:14.758Z,50.00
2018-10-18T00:35:47.185Z,52.57
2018-10-18T00:38:19.643Z,57.23
2018-10-18T00:40:52.139Z,60.47
2018-10-18T00:43:24.584Z,57.03
2018-10-18T00:45:57.029Z,52.53
2018-10-18T00:48:29.445Z,54.13
2018-10-18T00:51:01.967Z,53.37
2018-10-18T00:53:34.383Z,54.20
2018-10-18T00:56:06.924Z,58.00
2018-10-18T00:58:39.284Z,60.27
2018-10-18T01:01:11.711Z,57.93
2018-10-18T01:03:44.139Z,59.23
2018-10-18T01:06:16.993Z,52.63
2018-10-18T01:08:49.502Z,50.80
2018-10-18T01:11:21.927Z,52.13
2018-10-18T01:13:54.380Z,54.60
2018-10-18T01:16:26.778Z,57.73
2018-10-18T01:18:59.276Z,53.83
2018-10-18T01:21:31.740Z,53.47
2018-10-18T01:24:04.610Z,53.87
2018-10-18T01:26:37.066Z,51.30
2018-10-18T01:29:09.452Z,55.83
2018-10-18T01:31:41.902Z,53.63
2018-10-18T01:34:14.603Z,55.47
2018-10-18T01:36:47.084Z,53.03
2018-10-18T01:39:19.455Z,54.97
2018-10-18T01:41:51.956Z,48.13
2018-10-18T01:44:24.421Z,54.30
2018-10-18T01:46:56.851Z,52.57
2018-10-18T01:49:29.373Z,54.00
2018-10-18T01:52:01.902Z,55.40
2018-10-18T01:54:34.366Z,51.30
2018-10-18T01:57:06.797Z,56.80
2018-10-18T01:59:39.537Z,57.17
2018-10-18T02:02:13.749Z,53.00
2018-10-18T02:04:46.126Z,55.07
2018-10-18T02:07:18.510Z,58.00
2018-10-18T02:09:51.002Z,52.23
2018-10-18T02:12:23.410Z,55.27
2018-10-18T02:14:55.860Z,51.60
2018-10-18T02:17:28.901Z,55.70
2018-10-18T02:20:01.314Z,48.77
2018-10-18T02:22:34.677Z,52.50
2018-10-18T02:25:07.433Z,54.53
2018-10-18T02:27:40.146Z,58.17
2018-10-18T02:30:12.664Z,54.13
2018-10-18T02:32:45.066Z,53.17
2018-10-18T02:35:17.540Z,51.70
2018-10-18T02:37:49.977Z,54.23
2018-10-18T02:40:22.427Z,55.97
2018-10-18T02:42:54.959Z,54.20
2018-10-18T02:45:27.452Z,55.23
2018-10-18T02:48:00.380Z,60.00
2018-10-18T02:50:32.773Z,51.63
2018-10-18T02:53:05.250Z,54.90
2018-10-18T02:55:37.723Z,57.37
2018-10-18T02:58:10.163Z,52.60
2018-10-18T03:00:42.609Z,55.13
2018-10-18T03:03:15.547Z,54.30
2018-10-18T03:05:47.987Z,57.63
2018-10-18T03:08:20.428Z,60.33
2018-10-18T03:10:52.907Z,55.27
2018-10-18T03:13:25.425Z,56.70
2018-10-18T03:15:58.139Z,63.77
2018-10-18T03:18:30.576Z,55.97
2018-10-18T03:21:03.020Z,57.07
2018-10-18T03:23:35.545Z,51.43
2018-10-18T03:26:08.044Z,54.03
2018-10-18T03:28:40.513Z,52.23
2018-10-18T03:31:13.005Z,58.30
2018-10-18T03:33:45.439Z,54.70
2018-10-18T03:36:18.074Z,56.10
2018-10-18T03:38:50.440Z,51.30
2018-10-18T03:41:22.901Z,54.30
2018-10-18T03:43:55.407Z,58.83
2018-10-18T03:46:27.957Z,56.53
2018-10-18T03:49:00.471Z,67.23
2018-10-18T03:51:33.423Z,72.10
2018-10-18T03:54:05.916Z,67.30
2018-10-18T03:56:38.420Z,75.30
2018-10-18T03:59:10.908Z,66.53
2018-10-18T04:01:43.574Z,67.30
2018-10-18T04:04:16.027Z,69.17
2018-10-18T04:06:48.486Z,71.07
2018-10-18T04:09:20.886Z,69.03
2018-10-18T04:11:53.418Z,67.07
2018-10-18T04:14:25.912Z,74.33
2018-10-18T04:16:58.283Z,72.33
2018-10-18T04:19:30.688Z,69.43
2018-10-18T04:22:03.128Z,69.30
2018-10-18T04:24:37.043Z,67.87
2018-10-18T04:27:09.852Z,65.37
2018-10-18T04:29:42.279Z,64.27
2018-10-18T04:32:14.770Z,64.30
2018-10-18T04:34:47.241Z,63.03
2018-10-18T04:37:19.661Z,62.20
2018-10-18T04:39:52.628Z,62.17
2018-10-18T04:42:25.098Z,60.13
2018-10-18T04:44:57.583Z,62.27
2018-10-18T04:47:30.187Z,65.20
2018-10-18T04:50:02.667Z,66.47
2018-10-18T04:52:35.186Z,65.73
2018-10-18T04:55:07.811Z,62.40
2018-10-18T04:57:40.295Z,67.43
2018-10-18T05:00:13.138Z,61.63
2018-10-18T05:02:45.687Z,66.50
2018-10-18T05:05:29.969Z,63.53
2018-10-18T05:08:02.409Z,64.53
2018-10-18T05:10:34.901Z,66.60
2018-10-18T05:13:07.358Z,62.80
2018-10-18T05:15:40.143Z,63.73
2018-10-18T05:18:12.627Z,62.73
2018-10-18T05:20:45.329Z,71.70
2018-10-18T05:23:17.823Z,66.40
2018-10-18T05:25:50.874Z,65.23
2018-10-18T05:28:23.324Z,63.07
2018-10-18T05:30:55.952Z,64.80
2018-10-18T05:33:28.361Z,65.67
2018-10-18T05:36:01.090Z,59.83
2018-10-18T05:38:33.506Z,60.00
2018-10-18T05:41:05.959Z,61.40
2018-10-18T05:43:38.446Z,67.03
2018-10-18T05:46:11.062Z,59.87
2018-10-18T05:48:43.510Z,59.83
2018-10-18T05:51:16.052Z,63.57
2018-10-18T05:53:48.630Z,66.63
2018-10-18T05:56:21.261Z,70.40
2018-10-18T05:58:53.715Z,67.80
2018-10-18T06:01:26.339Z,65.70
2018-10-18T06:03:58.796Z,66.67
2018-10-18T06:06:31.268Z,66.50
2018-10-18T06:09:07.532Z,63.37
2018-10-18T06:11:40.045Z,69.73
2018-10-18T06:14:12.578Z,63.27
2018-10-18T06:16:45.103Z,64.33
2018-10-18T06:19:17.743Z,66.37
2018-10-18T06:21:50.312Z,65.57
2018-10-18T06:24:22.846Z,68.37
2018-10-18T06:26:55.444Z,59.57
2018-10-18T06:29:27.852Z,61.37
2018-10-18T06:32:00.465Z,60.33
2018-10-18T06:34:32.940Z,61.33
2018-10-18T06:37:05.507Z,60.63
2018-10-18T06:39:38.030Z,60.53
2018-10-18T06:42:10.476Z,60.60
2018-10-18T06:44:42.922Z,59.10
2018-10-18T06:47:15.558Z,63.13
2018-10-18T06:49:47.984Z,63.97
2018-10-18T06:52:20.463Z,61.50
2018-10-18T06:54:52.916Z,66.57
2018-10-18T06:57:25.399Z,60.20
2018-10-18T06:59:57.923Z,64.17
2018-10-18T07:02:30.419Z,62.03
2018-10-18T07:05:02.953Z,64.30
2018-10-18T07:07:35.455Z,64.23
2018-10-18T07:10:08.117Z,66.83
2018-10-18T07:12:40.927Z,60.67
2018-10-18T07:15:14.484Z,61.43
2018-10-18T07:17:47.042Z,66.40
2018-10-18T07:20:19.483Z,68.87
2018-10-18T07:22:51.974Z,66.93
2018-10-18T07:25:24.655Z,70.83
2018-10-18T07:27:57.745Z,67.57
2018-10-18T07:30:30.297Z,69.40
2018-10-18T07:33:02.830Z,73.83
2018-10-18T07:35:35.374Z,70.13
2018-10-18T07:38:07.905Z,74.83
2018-10-18T07:40:40.456Z,80.23
2018-10-18T07:43:12.847Z,74.07
2018-10-18T07:45:45.307Z,77.50
2018-10-18T07:48:18.270Z,78.23
2018-10-18T07:50:50.712Z,86.47
2018-10-18T07:53:23.262Z,78.87
2018-10-18T07:55:55.630Z,82.17
2018-10-18T07:58:28.107Z,71.03
2018-10-18T08:01:00.603Z,75.37
2018-10-18T08:03:32.969Z,78.60
2018-10-18T08:06:05.443Z,75.63
2018-10-18T08:08:37.953Z,73.87
2018-10-18T08:11:10.539Z,76.77
2018-10-18T08:13:43.872Z,76.50
2018-10-18T08:16:16.314Z,76.03
2018-10-18T08:18:48.733Z,77.20
2018-10-18T08:21:21.214Z,77.17
2018-10-18T08:23:53.768Z,73.17
2018-10-18T08:26:26.245Z,76.57
2018-10-18T08:28:59.146Z,81.17
2018-10-18T08:31:31.742Z,76.83
2018-10-18T08:34:04.685Z,82.40
2018-10-18T08:36:37.113Z,78.60
2018-10-18T08:39:10.541Z,74.70
2018-10-18T08:41:43.057Z,78.53
2018-10-18T08:44:15.661Z,80.77
2018-10-18T08:46:48.111Z,76.87
2018-10-18T08:49:20.685Z,78.50
2018-10-18T08:51:53.118Z,74.03
2018-10-18T08:54:25.688Z,72.90
2018-10-18T08:56:58.309Z,76.23
2018-10-18T08:59:30.864Z,67.73
2018-10-18T09:02:03.467Z,73.57
2018-10-18T09:04:35.906Z,75.00
2018-10-18T09:07:08.424Z,70.83
2018-10-18T09:09:41.135Z,75.30
2018-10-18T09:12:13.599Z,67.73
2018-10-18T09:14:46.113Z,73.40
2018-10-18T09:17:18.608Z,71.93
2018-10-18T09:19:51.165Z,75.23
2018-10-18T09:22:23.605Z,70.43
2018-10-18T09:24:56.034Z,75.37
2018-10-18T09:27:28.509Z,69.77
2018-10-18T09:30:02.003Z,69.97
2018-10-18T09:32:34.456Z,68.00
2018-10-18T09:35:07.355Z,70.30
2018-10-18T09:37:39.889Z,67.60
2018-10-18T09:40:12.438Z,67.90
2018-10-18T09:42:45.247Z,68.30
2018-10-18T09:45:17.666Z,71.43
2018-10-18T09:47:50.183Z,65.37
2018-10-18T09:50:22.880Z,74.27
2018-10-18T09:52:55.498Z,63.97
2018-10-18T09:55:28.061Z,65.77
2018-10-18T09:58:00.512Z,60.20
2018-10-18T10:00:38.731Z,63.90
2018-10-18T10:03:12.583Z,67.40
2018-10-18T10:05:45.118Z,65.30
2018-10-18T10:08:17.605Z,62.53
2018-10-18T10:10:50.068Z,61.20
2018-10-18T10:13:22.651Z,62.57
2018-10-18T10:15:54.992Z,59.80
2018-10-18T10:18:27.845Z,60.93
2018-10-18T10:21:00.289Z,58.23
2018-10-18T10:23:32.808Z,59.43
2018-10-18T10:26:05.211Z,64.00
2018-10-18T10:28:37.777Z,60.17
2018-10-18T10:31:11.807Z,65.67
2018-10-18T10:33:44.306Z,60.23
2018-10-18T10:36:16.798Z,58.20
2018-10-18T10:38:49.206Z,63.00
2018-10-18T10:41:21.784Z,58.80
2018-10-18T10:43:54.243Z,62.30
2018-10-18T10:46:27.278Z,58.73
2018-10-18T10:48:59.734Z,50.77
2018-10-18T10:51:34.276Z,53.40
2018-10-18T10:54:07.603Z,48.13
2018-10-18T10:56:40.043Z,57.93
2018-10-18T10:59:16.614Z,49.23
2018-10-18T11:01:49.114Z,44.53
2018-10-18T11:04:21.629Z,46.47
2018-10-18T11:06:54.420Z,47.60
2018-10-18T11:09:27.061Z,49.37
2018-10-18T11:11:59.740Z,49.60
2018-10-18T11:14:32.066Z,46.83
2018-10-18T11:17:04.558Z,38.33
2018-10-18T11:19:36.999Z,46.77
2018-10-18T11:22:09.546Z,50.10
2018-10-18T11:24:42.117Z,47.40
2018-10-18T11:27:14.654Z,48.60
2018-10-18T11:29:47.183Z,45.80
2018-10-18T11:32:19.697Z,48.93
2018-10-18T11:34:52.247Z,46.37
2018-10-18T11:37:24.790Z,54.03
2018-10-18T11:39:57.305Z,44.23
2018-10-18T11:42:29.808Z,45.37
2018-10-18T11:45:02.761Z,47.87
2018-10-18T11:47:35.254Z,47.47
2018-10-18T11:50:08.199Z,50.53
2018-10-18T11:52:40.713Z,46.83
2018-10-18T11:55:13.223Z,47.43
2018-10-18T11:57:45.895Z,48.57
2018-10-18T12:00:19.284Z,47.73
2018-10-18T12:02:51.764Z,46.73
2018-10-18T12:05:24.260Z,48.43
2018-10-18T12:07:57.109Z,46.97
2018-10-18T12:10:29.615Z,47.67
2018-10-18T12:13:02.141Z,48.53
2018-10-18T12:15:34.569Z,46.53
2018-10-18T12:18:06.993Z,48.33
2018-10-18T12:20:39.443Z,51.17
2018-10-18T12:23:11.876Z,48.03
2018-10-18T12:25:44.390Z,48.57
2018-10-18T12:28:16.768Z,47.67
2018-10-18T12:30:49.274Z,50.83
2018-10-18T12:33:21.850Z,47.67
2018-10-18T12:35:54.514Z,45.93
2018-10-18T12:38:26.976Z,51.03
2018-10-18T12:40:59.484Z,55.93
2018-10-18T12:43:31.892Z,52.47
2018-10-18T12:46:04.745Z,56.83
2018-10-18T12:48:37.381Z,51.97
2018-10-18T12:51:09.953Z,51.17
2018-10-18T12:53:42.416Z,51.80
2018-10-18T12:56:14.955Z,51.77
2018-10-18T12:58:47.479Z,53.70
2018-10-18T13:01:20.153Z,59.87
2018-10-18T13:03:52.698Z,60.60
2018-10-18T13:06:25.318Z,48.37
2018-10-18T13:08:57.898Z,62.17
2018-10-18T13:11:30.380Z,57.57
2018-10-18T13:14:03.023Z,54.60
2018-10-18T13:16:35.400Z,55.60
2018-10-18T13:19:08.553Z,62.97
2018-10-18T13:21:40.957Z,61.20
2018-10-18T13:24:13.530Z,61.93
2018-10-18T13:26:45.989Z,62.03
2018-10-18T13:29:18.453Z,62.67
2018-10-18T13:31:50.881Z,60.27
2018-10-18T13:34:23.497Z,53.87
2018-10-18T13:36:55.916Z,58.20
2018-10-18T13:39:28.399Z,56.37
2018-10-18T13:42:00.946Z,57.17
2018-10-18T13:44:33.343Z,53.70
2018-10-18T13:47:05.892Z,56.63
2018-10-18T13:49:38.391Z,57.83
2018-10-18T13:52:11.104Z,57.53
2018-10-18T13:54:43.674Z,54.50
2018-10-18T13:57:16.226Z,55.43
2018-10-18T14:00:00.313Z,56.80
2018-10-18T14:02:33.036Z,53.37
2018-10-18T14:05:05.674Z,55.23
2018-10-18T14:07:38.087Z,56.10
2018-10-18T14:10:10.813Z,58.67
2018-10-18T14:12:43.323Z,58.50
2018-10-18T14:15:16.022Z,61.67
2018-10-18T14:17:48.606Z,61.03
2018-10-18T14:20:21.234Z,59.53
2018-10-18T14:22:53.757Z,61.43
2018-10-18T14:25:26.244Z,61.90
2018-10-18T14:27:58.791Z,61.87
2018-10-18T14:30:31.345Z,56.50
2018-10-18T14:33:04.030Z,61.40
2018-10-18T14:35:37.352Z,62.27
2018-10-18T14:38:10.048Z,62.20
2018-10-18T14:40:42.343Z,66.33
2018-10-18T14:43:14.852Z,56.60
2018-10-18T14:45:47.321Z,60.73
2018-10-18T14:48:20.134Z,64.50
2018-10-18T14:50:53.388Z,64.03
2018-10-18T14:53:25.933Z,70.40
2018-10-18T14:55:58.552Z,64.73
2018-10-18T14:58:31.203Z,64.00
2018-10-18T15:01:03.786Z,62.03
2018-10-18T15:03:36.488Z,55.60
2018-10-18T15:06:09.007Z,62.80
2018-10-18T15:08:41.639Z,65.07
2018-10-18T15:11:14.232Z,67.50
2018-10-18T15:13:46.676Z,57.93
2018-10-18T15:16:19.280Z,62.47
2018-10-18T15:18:51.813Z,58.67
2018-10-18T15:21:24.730Z,59.50
2018-10-18T15:23:57.448Z,64.70
2018-10-18T15:26:30.003Z,52.63
2018-10-18T15:29:02.501Z,54.47
2018-10-18T15:31:35.192Z,60.40
2018-10-18T15:34:07.740Z,55.73
2018-10-18T15:36:40.233Z,56.03
2018-10-18T15:39:12.863Z,58.87
2018-10-18T15:41:45.329Z,58.87
2018-10-18T15:44:17.963Z,63.40
2018-10-18T15:46:50.345Z,58.83
2018-10-18T15:49:22.871Z,65.23
2018-10-18T15:51:55.284Z,55.73
2018-10-18T15:54:28.258Z,60.40
2018-10-18T15:57:00.727Z,62.47
2018-10-18T15:59:33.449Z,62.00
2018-10-18T16:02:05.917Z,60.13
2018-10-18T16:04:38.390Z,61.20
2018-10-18T16:07:10.830Z,63.40
2018-10-18T16:09:43.407Z,62.97
2018-10-18T16:12:16.068Z,70.80
2018-10-18T16:14:48.799Z,72.67
2018-10-18T16:17:21.260Z,63.67
2018-10-18T16:19:53.850Z,66.30
2018-10-18T16:22:26.296Z,68.27
2018-10-18T16:24:58.869Z,68.03
2018-10-18T16:27:31.405Z,66.57
2018-10-18T16:30:04.325Z,67.13
2018-10-18T16:32:37.087Z,68.40
2018-10-18T16:35:09.650Z,65.13
2018-10-18T16:37:42.104Z,73.77
2018-10-18T16:40:14.653Z,68.07
2018-10-18T16:42:47.172Z,60.67
2018-10-18T16:45:19.636Z,58.93
2018-10-18T16:47:52.161Z,60.53
2018-10-18T16:50:24.567Z,62.20
2018-10-18T16:52:57.026Z,63.43
2018-10-18T16:55:29.458Z,52.93
2018-10-18T16:58:02.081Z,57.77
2018-10-18T17:00:34.602Z,52.47
2018-10-18T17:03:07.070Z,53.00
2018-10-18T17:05:39.530Z,48.83
2018-10-18T17:08:12.011Z,44.90
2018-10-18T17:10:44.547Z,32.70
2018-10-18T17:13:17.028Z,28.90
2018-10-18T17:15:49.504Z,31.77
2018-10-18T17:18:21.966Z,28.43
2018-10-18T17:20:54.489Z,27.27
2018-10-18T17:23:27.099Z,27.83
2018-10-18T17:25:59.936Z,24.50
2018-10-18T17:28:32.364Z,33.03
2018-10-18T17:31:04.833Z,33.73
2018-10-18T17:33:37.293Z,38.87
2018-10-18T17:36:09.985Z,35.93
2018-10-18T17:38:42.386Z,32.77
2018-10-18T17:41:14.935Z,40.33
2018-10-18T17:43:47.451Z,39.10
2018-10-18T17:46:20.181Z,39.20
2018-10-18T17:48:52.588Z,31.97
2018-10-18T17:51:25.112Z,36.27
2018-10-18T17:53:57.585Z,32.67
2018-10-18T17:56:30.018Z,49.33
2018-10-18T17:59:02.626Z,36.03
2018-10-18T18:01:35.087Z,37.40
2018-10-18T18:04:07.528Z,40.97
2018-10-18T18:06:40.089Z,44.10
2018-10-18T18:09:12.535Z,34.43
2018-10-18T18:11:45.027Z,34.83
2018-10-18T18:14:17.485Z,36.33
2018-10-18T18:16:50.519Z,34.90
2018-10-18T18:19:23.026Z,36.47
2018-10-18T18:21:55.807Z,35.60
2018-10-18T18:24:28.325Z,33.47
2018-10-18T18:27:00.988Z,31.20
2018-10-18T18:29:33.447Z,30.40
2018-10-18T18:32:05.956Z,30.40
2018-10-18T18:34:38.603Z,35.77
2018-10-18T18:37:11.055Z,32.40
2018-10-18T18:39:43.550Z,33.47
2018-10-18T18:42:16.077Z,33.47
2018-10-18T18:44:48.604Z,29.80
2018-10-18T18:47:21.138Z,30.93
2018-10-18T18:49:53.578Z,31.03
2018-10-18T18:52:26.014Z,32.83
2018-10-18T18:54:58.439Z,32.93
2018-10-18T18:57:30.843Z,27.47
2018-10-18T19:00:03.999Z,22.67
2018-10-18T19:02:36.579Z,24.47
2018-10-18T19:05:09.155Z,26.13
2018-10-18T19:07:41.635Z,24.60
2018-10-18T19:10:14.118Z,21.37
2018-10-18T19:12:46.575Z,14.23
2018-10-18T19:15:19.069Z,18.70
2018-10-18T19:17:51.430Z,19.47
2018-10-18T19:20:24.030Z,19.73
2018-10-18T19:22:56.487Z,15.17
2018-10-18T19:25:28.921Z,17.30
2018-10-18T19:28:01.338Z,15.03
2018-10-18T19:30:33.804Z,17.70
2018-10-18T19:33:06.298Z,16.10
2018-10-18T19:35:38.746Z,16.73
2018-10-18T19:38:11.379Z,17.03
2018-10-18T19:40:43.869Z,15.77
2018-10-18T19:43:16.370Z,12.37
2018-10-18T19:45:48.925Z,13.77
2018-10-18T19:48:21.425Z,15.93
2018-10-18T19:50:53.934Z,16.37
2018-10-18T19:53:26.325Z,14.63
2018-10-18T19:55:59.082Z,12.47
2018-10-18T19:58:31.517Z,14.73
2018-10-18T20:01:04.515Z,11.80
2018-10-18T20:03:36.947Z,11.53
2018-10-18T20:06:09.459Z,15.10
2018-10-18T20:08:41.920Z,13.87
2018-10-18T20:11:14.455Z,11.37
2018-10-18T20:13:46.969Z,15.40
2018-10-18T20:16:19.418Z,14.57
2018-10-18T20:18:51.934Z,14.30
2018-10-18T20:21:24.450Z,11.83
2018-10-18T20:23:57.141Z,11.97
2018-10-18T20:26:29.662Z,13.03
2018-10-18T20:29:02.203Z,17.50
2018-10-18T20:31:35.081Z,13.10
2018-10-18T20:34:07.566Z,13.80
2018-10-18T20:36:40.068Z,16.20
2018-10-18T20:39:12.604Z,13.30
2018-10-18T20:41:45.667Z,17.20
2018-10-18T20:44:18.075Z,17.27
2018-10-18T20:46:50.617Z,11.30
2018-10-18T20:49:23.063Z,16.03
2018-10-18T20:51:55.559Z,12.83
2018-10-18T20:54:28.015Z,12.47
2018-10-18T20:57:00.491Z,11.00
2018-10-18T20:59:32.982Z,15.30
2018-10-18T21:02:05.981Z,12.40
2018-10-18T21:04:38.383Z,13.57
2018-10-18T21:07:11.119Z,16.03
2018-10-18T21:09:43.659Z,12.13
2018-10-18T21:12:16.123Z,14.23
2018-10-18T21:14:48.557Z,11.30
2018-10-18T21:17:21.131Z,9.37
2018-10-18T21:19:53.774Z,15.30
2018-10-18T21:22:26.335Z,10.73
2018-10-18T21:24:58.767Z,9.70
2018-10-18T21:27:31.221Z,7.33
2018-10-18T21:30:04.350Z,8.47
2018-10-18T21:32:36.840Z,9.47
2018-10-18T21:35:09.422Z,6.77
2018-10-18T21:37:41.777Z,7.90
2018-10-18T21:40:14.218Z,7.73
2018-10-18T21:42:46.990Z,5.60
2018-10-18T21:45:19.597Z,6.47
2018-10-18T21:47:52.129Z,7.97
2018-10-18T21:50:24.558Z,3.83
2018-10-18T21:52:57.085Z,8.83
2018-10-18T21:55:29.528Z,5.67
2018-10-18T21:58:02.599Z,7.83
2018-10-18T22:00:40.560Z,5.57
2018-10-18T22:03:13.329Z,6.17
2018-10-18T22:05:45.759Z,7.30
2018-10-18T22:08:18.193Z,6.23
2018-10-18T22:10:50.612Z,7.93
2018-10-18T22:13:23.101Z,4.07
2018-10-18T22:15:55.561Z,4.43
2018-10-18T22:18:27.988Z,7.87
2018-10-18T22:21:00.461Z,10.03
2018-10-18T22:23:32.879Z,4.17
2018-10-18T22:26:05.286Z,6.00
2018-10-18T22:28:37.744Z,6.37
2018-10-18T22:31:10.246Z,6.20
2018-10-18T22:33:42.727Z,9.27
2018-10-18T22:36:15.228Z,5.50
2018-10-18T22:38:47.731Z,6.90
2018-10-18T22:41:20.152Z,9.57
2018-10-18T22:43:52.709Z,7.50
2018-10-18T22:46:25.257Z,9.43
2018-10-18T22:48:57.686Z,6.97
2018-10-18T22:51:30.106Z,7.50
2018-10-18T22:54:02.554Z,3.33
2018-10-18T22:56:35.027Z,6.33
2018-10-18T22:59:07.570Z,7.97
2018-10-18T23:01:39.976Z,7.70
2018-10-18T23:04:12.453Z,11.67
2018-10-18T23:06:45.008Z,10.80
2018-10-18T23:09:17.677Z,6.03
2018-10-18T23:11:50.034Z,8.57
2018-10-18T23:14:22.448Z,4.50
2018-10-18T23:16:54.917Z,8.57
2018-10-18T23:19:27.455Z,4.50
2018-10-18T23:21:59.891Z,6.03
2018-10-18T23:24:33.123Z,7.03
2018-10-18T23:27:06.468Z,4.13
2018-10-18T23:29:39.565Z,9.40
2018-10-18T23:32:11.979Z,9.37
2018-10-18T23:34:44.462Z,6.07
2018-10-18T23:37:16.934Z,7.50
2018-10-18T23:39:49.353Z,5.67
2018-10-18T23:42:21.768Z,6.63
2018-10-18T23:44:54.321Z,8.47
2018-10-18T23:47:26.895Z,6.03
2018-10-18T23:49:59.343Z,4.83
2018-10-18T23:52:31.782Z,7.10
2018-10-18T23:55:04.294Z,8.87
2018-10-18T23:57:36.785Z,9.33
